sensor_id;sensor_type;location;lat;lon;timestamp;temperature;humidity
3770;DHT22;1900;48.890;9.190;2024-03-25T00:02:01;10.60;54.50
3770;DHT22;1900;48.890;9.190;2024-03-25T00:04:26;10.60;54.50
3770;DHT22;1900;48.890;9.190;2024-03-25T00:06:52;10.70;54.60
3770;DHT22;1900;48.890;9.190;2024-03-25T00:09:19;10.70;54.60
3770;DHT22;1900;48.890;9.190;2024-03-25T00:11:46;10.70;54.60
3770;DHT22;1900;48.890;9.190;2024-03-25T00:14:11;10.70;54.60
3770;DHT22;1900;48.890;9.190;2024-03-25T00:16:37;10.60;54.50
3770;DHT22;1900;48.890;9.190;2024-03-25T00:19:03;10.70;54.60
3770;DHT22;1900;48.890;9.190;2024-03-25T00:21:29;10.70;54.60
3770;DHT22;1900;48.890;9.190;2024-03-25T00:23:54;10.70;54.60
3770;DHT22;1900;48.890;9.190;2024-03-25T00:26:23;10.70;54.60
3770;DHT22;1900;48.890;9.190;2024-03-25T00:28:49;10.70;54.60
3770;DHT22;1900;48.890;9.190;2024-03-25T00:31:15;10.70;54.50
3770;DHT22;1900;48.890;9.190;2024-03-25T00:33:40;10.70;54.50
3770;DHT22;1900;48.890;9.190;2024-03-25T00:36:06;10.70;54.50
3770;DHT22;1900;48.890;9.190;2024-03-25T00:38:33;10.70;54.50
3770;DHT22;1900;48.890;9.190;2024-03-25T00:40:58;10.70;54.50
3770;DHT22;1900;48.890;9.190;2024-03-25T00:43:24;10.70;54.50
3770;DHT22;1900;48.890;9.190;2024-03-25T00:45:50;10.70;54.50
3770;DHT22;1900;48.890;9.190;2024-03-25T00:48:15;10.70;54.50
3770;DHT22;1900;48.890;9.190;2024-03-25T00:50:41;10.70;54.50
3770;DHT22;1900;48.890;9.190;2024-03-25T00:53:07;10.70;54.50
3770;DHT22;1900;48.890;9.190;2024-03-25T00:55:33;10.70;54.50
3770;DHT22;1900;48.890;9.190;2024-03-25T00:58:02;10.60;54.40
3770;DHT22;1900;48.890;9.190;2024-03-25T01:00:27;10.60;54.40
3770;DHT22;1900;48.890;9.190;2024-03-25T01:02:53;10.60;54.40
3770;DHT22;1900;48.890;9.190;2024-03-25T01:05:19;10.60;54.40
3770;DHT22;1900;48.890;9.190;2024-03-25T01:07:44;10.60;54.40
3770;DHT22;1900;48.890;9.190;2024-03-25T01:10:10;10.60;54.40
3770;DHT22;1900;48.890;9.190;2024-03-25T01:12:36;10.60;54.50
3770;DHT22;1900;48.890;9.190;2024-03-25T01:15:01;10.60;54.40
3770;DHT22;1900;48.890;9.190;2024-03-25T01:17:28;10.60;54.40
3770;DHT22;1900;48.890;9.190;2024-03-25T01:19:54;10.60;54.40
3770;DHT22;1900;48.890;9.190;2024-03-25T01:22:20;10.60;54.40
3770;DHT22;1900;48.890;9.190;2024-03-25T01:24:45;10.60;54.40
3770;DHT22;1900;48.890;9.190;2024-03-25T01:27:11;10.60;54.40
3770;DHT22;1900;48.890;9.190;2024-03-25T01:29:37;10.60;54.40
3770;DHT22;1900;48.890;9.190;2024-03-25T01:32:02;10.60;54.40
3770;DHT22;1900;48.890;9.190;2024-03-25T01:34:30;10.60;54.30
3770;DHT22;1900;48.890;9.190;2024-03-25T01:36:55;10.50;54.20
3770;DHT22;1900;48.890;9.190;2024-03-25T01:39:21;10.50;54.10
3770;DHT22;1900;48.890;9.190;2024-03-25T01:41:47;10.50;54.10
3770;DHT22;1900;48.890;9.190;2024-03-25T01:44:13;10.50;54.10
3770;DHT22;1900;48.890;9.190;2024-03-25T01:46:39;10.40;54.00
3770;DHT22;1900;48.890;9.190;2024-03-25T01:49:05;10.40;54.00
3770;DHT22;1900;48.890;9.190;2024-03-25T01:51:32;10.40;54.00
3770;DHT22;1900;48.890;9.190;2024-03-25T01:53:58;10.30;53.90
3770;DHT22;1900;48.890;9.190;2024-03-25T01:56:25;10.40;54.00
3770;DHT22;1900;48.890;9.190;2024-03-25T01:58:52;10.30;53.90
3770;DHT22;1900;48.890;9.190;2024-03-25T02:01:19;10.30;53.80
3770;DHT22;1900;48.890;9.190;2024-03-25T02:03:45;10.20;53.70
3770;DHT22;1900;48.890;9.190;2024-03-25T02:06:16;10.20;53.60
3770;DHT22;1900;48.890;9.190;2024-03-25T02:08:43;10.10;53.60
3770;DHT22;1900;48.890;9.190;2024-03-25T02:11:10;10.10;53.60
3770;DHT22;1900;48.890;9.190;2024-03-25T02:13:36;10.00;53.50
3770;DHT22;1900;48.890;9.190;2024-03-25T02:16:03;10.00;53.50
3770;DHT22;1900;48.890;9.190;2024-03-25T02:18:30;9.90;54.30
3770;DHT22;1900;48.890;9.190;2024-03-25T02:20:57;9.90;54.30
3770;DHT22;1900;48.890;9.190;2024-03-25T02:23:23;9.80;54.30
3770;DHT22;1900;48.890;9.190;2024-03-25T02:25:55;9.80;54.40
3770;DHT22;1900;48.890;9.190;2024-03-25T02:28:21;9.80;54.50
3770;DHT22;1900;48.890;9.190;2024-03-25T02:30:46;9.80;54.60
3770;DHT22;1900;48.890;9.190;2024-03-25T02:33:13;9.80;54.70
3770;DHT22;1900;48.890;9.190;2024-03-25T02:35:40;9.80;54.80
3770;DHT22;1900;48.890;9.190;2024-03-25T02:38:08;9.80;54.80
3770;DHT22;1900;48.890;9.190;2024-03-25T02:40:35;9.80;54.90
3770;DHT22;1900;48.890;9.190;2024-03-25T02:43:01;9.80;55.00
3770;DHT22;1900;48.890;9.190;2024-03-25T02:45:27;9.80;55.00
3770;DHT22;1900;48.890;9.190;2024-03-25T02:47:53;9.80;55.10
3770;DHT22;1900;48.890;9.190;2024-03-25T02:50:19;9.90;55.20
3770;DHT22;1900;48.890;9.190;2024-03-25T02:52:45;9.90;55.20
3770;DHT22;1900;48.890;9.190;2024-03-25T02:55:10;9.90;55.20
3770;DHT22;1900;48.890;9.190;2024-03-25T02:57:36;9.90;55.20
3770;DHT22;1900;48.890;9.190;2024-03-25T03:00:02;9.90;55.20
3770;DHT22;1900;48.890;9.190;2024-03-25T03:02:27;10.00;54.40
3770;DHT22;1900;48.890;9.190;2024-03-25T03:04:53;10.00;54.40
3770;DHT22;1900;48.890;9.190;2024-03-25T03:07:19;10.00;54.40
3770;DHT22;1900;48.890;9.190;2024-03-25T03:09:44;10.00;54.40
3770;DHT22;1900;48.890;9.190;2024-03-25T03:12:10;10.00;54.40
3770;DHT22;1900;48.890;9.190;2024-03-25T03:14:35;10.10;54.50
3770;DHT22;1900;48.890;9.190;2024-03-25T03:17:01;10.10;54.60
3770;DHT22;1900;48.890;9.190;2024-03-25T03:19:30;10.10;54.60
3770;DHT22;1900;48.890;9.190;2024-03-25T03:21:56;10.10;54.60
3770;DHT22;1900;48.890;9.190;2024-03-25T03:24:22;10.10;54.60
3770;DHT22;1900;48.890;9.190;2024-03-25T03:26:48;10.20;54.70
3770;DHT22;1900;48.890;9.190;2024-03-25T03:29:14;10.20;54.60
3770;DHT22;1900;48.890;9.190;2024-03-25T03:31:40;10.20;54.70
3770;DHT22;1900;48.890;9.190;2024-03-25T03:34:05;10.20;54.70
3770;DHT22;1900;48.890;9.190;2024-03-25T03:36:31;10.20;54.70
3770;DHT22;1900;48.890;9.190;2024-03-25T03:38:57;10.20;54.60
3770;DHT22;1900;48.890;9.190;2024-03-25T03:41:22;10.30;54.70
3770;DHT22;1900;48.890;9.190;2024-03-25T03:43:48;10.30;54.70
3770;DHT22;1900;48.890;9.190;2024-03-25T03:46:14;10.30;54.70
3770;DHT22;1900;48.890;9.190;2024-03-25T03:48:39;10.30;54.70
3770;DHT22;1900;48.890;9.190;2024-03-25T03:51:06;10.30;54.60
3770;DHT22;1900;48.890;9.190;2024-03-25T03:53:32;10.30;54.50
3770;DHT22;1900;48.890;9.190;2024-03-25T03:56:03;10.30;54.50
3770;DHT22;1900;48.890;9.190;2024-03-25T03:58:32;10.30;54.60
3770;DHT22;1900;48.890;9.190;2024-03-25T04:00:58;10.30;54.60
3770;DHT22;1900;48.890;9.190;2024-03-25T04:03:24;10.30;54.50
3770;DHT22;1900;48.890;9.190;2024-03-25T04:05:50;10.30;54.50
3770;DHT22;1900;48.890;9.190;2024-03-25T04:08:16;10.20;54.40
3770;DHT22;1900;48.890;9.190;2024-03-25T04:10:43;10.30;54.60
3770;DHT22;1900;48.890;9.190;2024-03-25T04:13:09;10.30;54.60
3770;DHT22;1900;48.890;9.190;2024-03-25T04:15:35;10.30;55.20
3770;DHT22;1900;48.890;9.190;2024-03-25T04:18:02;10.30;54.60
3770;DHT22;1900;48.890;9.190;2024-03-25T04:20:28;10.30;54.60
3770;DHT22;1900;48.890;9.190;2024-03-25T04:22:54;10.30;54.60
3770;DHT22;1900;48.890;9.190;2024-03-25T04:25:20;10.30;54.60
3770;DHT22;1900;48.890;9.190;2024-03-25T04:27:46;10.30;54.60
3770;DHT22;1900;48.890;9.190;2024-03-25T04:30:12;10.30;54.60
3770;DHT22;1900;48.890;9.190;2024-03-25T04:32:39;10.30;54.50
3770;DHT22;1900;48.890;9.190;2024-03-25T04:35:08;10.20;54.40
3770;DHT22;1900;48.890;9.190;2024-03-25T04:37:34;10.20;54.50
3770;DHT22;1900;48.890;9.190;2024-03-25T04:40:00;10.30;54.60
3770;DHT22;1900;48.890;9.190;2024-03-25T04:42:26;10.30;54.70
3770;DHT22;1900;48.890;9.190;2024-03-25T04:44:52;10.30;55.20
3770;DHT22;1900;48.890;9.190;2024-03-25T04:47:18;10.30;54.70
3770;DHT22;1900;48.890;9.190;2024-03-25T04:49:44;10.30;54.60
3770;DHT22;1900;48.890;9.190;2024-03-25T04:52:14;10.30;54.60
3770;DHT22;1900;48.890;9.190;2024-03-25T04:54:42;10.30;54.70
3770;DHT22;1900;48.890;9.190;2024-03-25T04:57:08;10.30;54.60
3770;DHT22;1900;48.890;9.190;2024-03-25T04:59:34;10.30;54.60
3770;DHT22;1900;48.890;9.190;2024-03-25T05:01:59;10.30;54.60
3770;DHT22;1900;48.890;9.190;2024-03-25T05:04:26;10.20;54.50
3770;DHT22;1900;48.890;9.190;2024-03-25T05:06:53;10.20;54.50
3770;DHT22;1900;48.890;9.190;2024-03-25T05:09:19;10.20;54.50
3770;DHT22;1900;48.890;9.190;2024-03-25T05:11:45;10.20;54.50
3770;DHT22;1900;48.890;9.190;2024-03-25T05:14:11;10.20;54.50
3770;DHT22;1900;48.890;9.190;2024-03-25T05:16:37;10.20;54.40
3770;DHT22;1900;48.890;9.190;2024-03-25T05:19:03;10.20;54.40
3770;DHT22;1900;48.890;9.190;2024-03-25T05:21:33;10.20;54.40
3770;DHT22;1900;48.890;9.190;2024-03-25T05:23:59;10.20;54.40
3770;DHT22;1900;48.890;9.190;2024-03-25T05:26:25;10.10;54.30
3770;DHT22;1900;48.890;9.190;2024-03-25T05:28:57;10.10;54.30
3770;DHT22;1900;48.890;9.190;2024-03-25T05:31:26;10.10;54.30
3770;DHT22;1900;48.890;9.190;2024-03-25T05:33:51;10.10;54.30
3770;DHT22;1900;48.890;9.190;2024-03-25T05:36:17;10.10;54.30
3770;DHT22;1900;48.890;9.190;2024-03-25T05:38:43;10.10;54.30
3770;DHT22;1900;48.890;9.190;2024-03-25T05:41:09;10.00;54.20
3770;DHT22;1900;48.890;9.190;2024-03-25T05:43:35;10.00;54.20
3770;DHT22;1900;48.890;9.190;2024-03-25T05:46:01;10.00;54.20
3770;DHT22;1900;48.890;9.190;2024-03-25T05:48:28;10.00;54.20
3770;DHT22;1900;48.890;9.190;2024-03-25T05:51:05;10.00;54.20
3770;DHT22;1900;48.890;9.190;2024-03-25T05:53:31;10.00;54.20
3770;DHT22;1900;48.890;9.190;2024-03-25T05:55:57;9.90;54.90
3770;DHT22;1900;48.890;9.190;2024-03-25T05:58:26;9.90;54.90
3770;DHT22;1900;48.890;9.190;2024-03-25T06:00:52;9.90;54.90
3770;DHT22;1900;48.890;9.190;2024-03-25T06:03:21;9.90;54.90
3770;DHT22;1900;48.890;9.190;2024-03-25T06:05:48;9.80;54.80
3770;DHT22;1900;48.890;9.190;2024-03-25T06:08:14;9.80;54.80
3770;DHT22;1900;48.890;9.190;2024-03-25T06:10:54;9.80;54.80
3770;DHT22;1900;48.890;9.190;2024-03-25T06:13:20;9.70;54.70
3770;DHT22;1900;48.890;9.190;2024-03-25T06:15:47;9.70;54.70
3770;DHT22;1900;48.890;9.190;2024-03-25T06:18:12;9.70;54.70
3770;DHT22;1900;48.890;9.190;2024-03-25T06:20:38;9.70;54.80
3770;DHT22;1900;48.890;9.190;2024-03-25T06:23:04;9.70;54.80
3770;DHT22;1900;48.890;9.190;2024-03-25T06:25:30;9.70;54.90
3770;DHT22;1900;48.890;9.190;2024-03-25T06:27:57;9.60;54.90
3770;DHT22;1900;48.890;9.190;2024-03-25T06:30:23;9.60;54.90
3770;DHT22;1900;48.890;9.190;2024-03-25T06:33:07;9.60;55.00
3770;DHT22;1900;48.890;9.190;2024-03-25T06:35:51;9.60;55.00
3770;DHT22;1900;48.890;9.190;2024-03-25T06:38:20;9.60;55.10
3770;DHT22;1900;48.890;9.190;2024-03-25T06:40:46;9.70;55.10
3770;DHT22;1900;48.890;9.190;2024-03-25T06:43:12;9.70;55.20
3770;DHT22;1900;48.890;9.190;2024-03-25T06:45:38;9.70;55.30
3770;DHT22;1900;48.890;9.190;2024-03-25T06:48:04;9.70;55.30
3770;DHT22;1900;48.890;9.190;2024-03-25T06:50:30;9.70;55.30
3770;DHT22;1900;48.890;9.190;2024-03-25T06:52:55;9.70;55.40
3770;DHT22;1900;48.890;9.190;2024-03-25T06:55:21;9.80;55.50
3770;DHT22;1900;48.890;9.190;2024-03-25T06:57:50;9.80;56.00
3770;DHT22;1900;48.890;9.190;2024-03-25T07:00:16;9.80;55.60
3770;DHT22;1900;48.890;9.190;2024-03-25T07:03:04;9.90;55.90
3770;DHT22;1900;48.890;9.190;2024-03-25T07:05:30;10.00;55.60
3770;DHT22;1900;48.890;9.190;2024-03-25T07:07:56;10.10;56.10
3770;DHT22;1900;48.890;9.190;2024-03-25T07:10:22;10.20;56.50
3770;DHT22;1900;48.890;9.190;2024-03-25T07:12:48;10.30;56.40
3770;DHT22;1900;48.890;9.190;2024-03-25T07:15:13;10.40;56.30
3770;DHT22;1900;48.890;9.190;2024-03-25T07:17:39;10.50;56.10
3770;DHT22;1900;48.890;9.190;2024-03-25T07:20:05;10.50;56.00
3770;DHT22;1900;48.890;9.190;2024-03-25T07:22:33;10.60;56.00
3770;DHT22;1900;48.890;9.190;2024-03-25T07:24:59;10.60;55.90
3770;DHT22;1900;48.890;9.190;2024-03-25T07:27:25;10.60;55.80
3770;DHT22;1900;48.890;9.190;2024-03-25T07:29:50;10.70;55.90
3770;DHT22;1900;48.890;9.190;2024-03-25T07:32:16;10.70;56.50
3770;DHT22;1900;48.890;9.190;2024-03-25T07:34:42;10.70;56.00
3770;DHT22;1900;48.890;9.190;2024-03-25T07:37:08;10.80;56.10
3770;DHT22;1900;48.890;9.190;2024-03-25T07:39:33;10.80;56.10
3770;DHT22;1900;48.890;9.190;2024-03-25T07:41:59;10.90;56.20
3770;DHT22;1900;48.890;9.190;2024-03-25T07:44:25;10.90;56.30
3770;DHT22;1900;48.890;9.190;2024-03-25T07:46:50;11.00;56.30
3770;DHT22;1900;48.890;9.190;2024-03-25T07:49:17;11.00;56.10
3770;DHT22;1900;48.890;9.190;2024-03-25T07:51:43;11.00;55.90
3770;DHT22;1900;48.890;9.190;2024-03-25T07:54:08;11.10;55.90
3770;DHT22;1900;48.890;9.190;2024-03-25T07:56:54;11.00;55.60
3770;DHT22;1900;48.890;9.190;2024-03-25T07:59:20;11.00;55.40
3770;DHT22;1900;48.890;9.190;2024-03-25T08:01:46;11.00;55.40
3770;DHT22;1900;48.890;9.190;2024-03-25T08:04:11;11.00;55.50
3770;DHT22;1900;48.890;9.190;2024-03-25T08:06:37;11.00;55.50
3770;DHT22;1900;48.890;9.190;2024-03-25T08:09:03;10.90;55.40
3770;DHT22;1900;48.890;9.190;2024-03-25T08:11:31;11.00;55.60
3770;DHT22;1900;48.890;9.190;2024-03-25T08:13:57;11.00;55.80
3770;DHT22;1900;48.890;9.190;2024-03-25T08:16:23;11.00;55.80
3770;DHT22;1900;48.890;9.190;2024-03-25T08:18:49;11.00;55.80
3770;DHT22;1900;48.890;9.190;2024-03-25T08:21:16;11.10;55.90
3770;DHT22;1900;48.890;9.190;2024-03-25T08:23:44;11.10;55.90
3770;DHT22;1900;48.890;9.190;2024-03-25T08:26:09;11.10;56.00
3770;DHT22;1900;48.890;9.190;2024-03-25T08:28:35;11.20;56.20
3770;DHT22;1900;48.890;9.190;2024-03-25T08:31:01;11.30;56.50
3770;DHT22;1900;48.890;9.190;2024-03-25T08:33:27;11.30;56.50
3770;DHT22;1900;48.890;9.190;2024-03-25T08:35:54;11.40;56.60
3770;DHT22;1900;48.890;9.190;2024-03-25T08:38:20;11.50;56.60
3770;DHT22;1900;48.890;9.190;2024-03-25T08:40:45;11.50;56.50
3770;DHT22;1900;48.890;9.190;2024-03-25T08:43:11;11.60;56.60
3770;DHT22;1900;48.890;9.190;2024-03-25T08:45:37;11.60;56.70
3770;DHT22;1900;48.890;9.190;2024-03-25T08:48:02;11.70;56.90
3770;DHT22;1900;48.890;9.190;2024-03-25T08:50:28;11.80;57.10
3770;DHT22;1900;48.890;9.190;2024-03-25T08:52:54;11.90;57.30
3770;DHT22;1900;48.890;9.190;2024-03-25T08:55:20;12.00;57.40
3770;DHT22;1900;48.890;9.190;2024-03-25T08:57:45;12.10;57.50
3770;DHT22;1900;48.890;9.190;2024-03-25T09:00:11;12.10;57.50
3770;DHT22;1900;48.890;9.190;2024-03-25T09:02:37;12.30;57.70
3770;DHT22;1900;48.890;9.190;2024-03-25T09:05:03;12.40;57.90
3770;DHT22;1900;48.890;9.190;2024-03-25T09:07:36;12.50;57.90
3770;DHT22;1900;48.890;9.190;2024-03-25T09:10:02;12.60;58.10
3770;DHT22;1900;48.890;9.190;2024-03-25T09:12:46;12.70;58.20
3770;DHT22;1900;48.890;9.190;2024-03-25T09:15:12;12.80;57.90
3770;DHT22;1900;48.890;9.190;2024-03-25T09:17:40;12.90;57.80
3770;DHT22;1900;48.890;9.190;2024-03-25T09:20:06;13.00;58.00
3770;DHT22;1900;48.890;9.190;2024-03-25T09:22:46;13.10;58.10
3770;DHT22;1900;48.890;9.190;2024-03-25T09:25:12;13.20;58.40
3770;DHT22;1900;48.890;9.190;2024-03-25T09:27:39;13.30;58.40
3770;DHT22;1900;48.890;9.190;2024-03-25T09:30:05;13.40;58.10
3770;DHT22;1900;48.890;9.190;2024-03-25T09:32:31;13.50;57.60
3770;DHT22;1900;48.890;9.190;2024-03-25T09:34:59;13.50;57.50
3770;DHT22;1900;48.890;9.190;2024-03-25T09:37:25;13.60;57.90
3770;DHT22;1900;48.890;9.190;2024-03-25T09:39:50;13.70;58.00
3770;DHT22;1900;48.890;9.190;2024-03-25T09:42:22;13.80;58.20
3770;DHT22;1900;48.890;9.190;2024-03-25T09:44:51;13.80;57.40
3770;DHT22;1900;48.890;9.190;2024-03-25T09:47:17;13.90;57.30
3770;DHT22;1900;48.890;9.190;2024-03-25T09:49:45;13.90;57.50
3770;DHT22;1900;48.890;9.190;2024-03-25T09:52:11;14.00;57.90
3770;DHT22;1900;48.890;9.190;2024-03-25T09:54:37;14.10;57.80
3770;DHT22;1900;48.890;9.190;2024-03-25T09:57:03;14.10;58.00
3770;DHT22;1900;48.890;9.190;2024-03-25T09:59:30;14.20;58.20
3770;DHT22;1900;48.890;9.190;2024-03-25T10:01:58;14.30;58.50
3770;DHT22;1900;48.890;9.190;2024-03-25T10:04:25;14.50;58.40
3770;DHT22;1900;48.890;9.190;2024-03-25T10:06:51;14.50;57.10
3770;DHT22;1900;48.890;9.190;2024-03-25T10:09:20;14.60;57.60
3770;DHT22;1900;48.890;9.190;2024-03-25T10:11:49;14.70;58.10
3770;DHT22;1900;48.890;9.190;2024-03-25T10:14:16;14.80;58.60
3770;DHT22;1900;48.890;9.190;2024-03-25T10:16:42;14.90;58.30
3770;DHT22;1900;48.890;9.190;2024-03-25T10:19:09;15.00;58.50
3770;DHT22;1900;48.890;9.190;2024-03-25T10:21:35;15.10;58.70
3770;DHT22;1900;48.890;9.190;2024-03-25T10:24:04;15.20;58.60
3770;DHT22;1900;48.890;9.190;2024-03-25T10:26:31;15.30;58.40
3770;DHT22;1900;48.890;9.190;2024-03-25T10:29:01;15.40;58.60
3770;DHT22;1900;48.890;9.190;2024-03-25T10:31:27;15.50;58.60
3770;DHT22;1900;48.890;9.190;2024-03-25T10:33:53;15.60;58.70
3770;DHT22;1900;48.890;9.190;2024-03-25T10:36:20;15.70;59.10
3770;DHT22;1900;48.890;9.190;2024-03-25T10:38:49;15.80;59.40
3770;DHT22;1900;48.890;9.190;2024-03-25T10:41:17;15.90;58.80
3770;DHT22;1900;48.890;9.190;2024-03-25T10:43:46;16.00;59.00
3770;DHT22;1900;48.890;9.190;2024-03-25T10:46:18;16.10;59.30
3770;DHT22;1900;48.890;9.190;2024-03-25T10:48:50;16.20;58.90
3770;DHT22;1900;48.890;9.190;2024-03-25T10:51:22;16.30;59.30
3770;DHT22;1900;48.890;9.190;2024-03-25T10:53:52;16.40;58.40
3770;DHT22;1900;48.890;9.190;2024-03-25T10:56:21;16.40;58.70
3770;DHT22;1900;48.890;9.190;2024-03-25T10:58:50;16.50;57.80
3770;DHT22;1900;48.890;9.190;2024-03-25T11:01:20;16.60;58.40
3770;DHT22;1900;48.890;9.190;2024-03-25T11:03:46;16.60;58.50
3770;DHT22;1900;48.890;9.190;2024-03-25T11:06:13;16.70;56.70
3770;DHT22;1900;48.890;9.190;2024-03-25T11:08:39;16.70;56.00
3770;DHT22;1900;48.890;9.190;2024-03-25T11:11:07;16.70;56.80
3770;DHT22;1900;48.890;9.190;2024-03-25T11:13:33;16.80;57.70
3770;DHT22;1900;48.890;9.190;2024-03-25T11:15:59;16.80;58.10
3770;DHT22;1900;48.890;9.190;2024-03-25T11:18:26;16.90;56.80
3770;DHT22;1900;48.890;9.190;2024-03-25T11:21:06;17.00;54.80
3770;DHT22;1900;48.890;9.190;2024-03-25T11:23:44;17.00;55.70
3770;DHT22;1900;48.890;9.190;2024-03-25T11:26:21;17.00;56.70
3770;DHT22;1900;48.890;9.190;2024-03-25T11:28:48;17.10;57.60
3770;DHT22;1900;48.890;9.190;2024-03-25T11:31:15;17.20;58.20
3770;DHT22;1900;48.890;9.190;2024-03-25T11:33:41;17.40;58.80
3770;DHT22;1900;48.890;9.190;2024-03-25T11:36:07;17.50;58.50
3770;DHT22;1900;48.890;9.190;2024-03-25T11:38:33;17.60;58.60
3770;DHT22;1900;48.890;9.190;2024-03-25T11:41:00;17.80;58.70
3770;DHT22;1900;48.890;9.190;2024-03-25T11:43:26;17.90;58.50
3770;DHT22;1900;48.890;9.190;2024-03-25T11:45:52;18.00;58.80
3770;DHT22;1900;48.890;9.190;2024-03-25T11:48:20;18.10;59.10
3770;DHT22;1900;48.890;9.190;2024-03-25T11:50:48;18.20;59.40
3770;DHT22;1900;48.890;9.190;2024-03-25T11:53:17;18.30;59.40
3770;DHT22;1900;48.890;9.190;2024-03-25T11:55:47;18.40;56.90
3770;DHT22;1900;48.890;9.190;2024-03-25T11:58:16;18.40;56.80
3770;DHT22;1900;48.890;9.190;2024-03-25T12:00:46;18.50;57.80
3770;DHT22;1900;48.890;9.190;2024-03-25T12:03:15;18.60;57.90
3770;DHT22;1900;48.890;9.190;2024-03-25T12:05:44;18.70;57.50
3770;DHT22;1900;48.890;9.190;2024-03-25T12:08:10;18.70;58.00
3770;DHT22;1900;48.890;9.190;2024-03-25T12:10:38;18.80;58.70
3770;DHT22;1900;48.890;9.190;2024-03-25T12:13:23;18.90;59.20
3770;DHT22;1900;48.890;9.190;2024-03-25T12:15:50;19.00;59.60
3770;DHT22;1900;48.890;9.190;2024-03-25T12:18:17;19.20;59.80
3770;DHT22;1900;48.890;9.190;2024-03-25T12:20:47;19.30;59.70
3770;DHT22;1900;48.890;9.190;2024-03-25T12:23:14;19.40;58.50
3770;DHT22;1900;48.890;9.190;2024-03-25T12:25:40;19.50;59.30
3770;DHT22;1900;48.890;9.190;2024-03-25T12:28:09;19.60;56.50
3770;DHT22;1900;48.890;9.190;2024-03-25T12:30:50;19.60;55.20
3770;DHT22;1900;48.890;9.190;2024-03-25T12:33:16;19.60;55.10
3770;DHT22;1900;48.890;9.190;2024-03-25T12:35:46;19.50;56.50
3770;DHT22;1900;48.890;9.190;2024-03-25T12:38:25;19.50;57.30
3770;DHT22;1900;48.890;9.190;2024-03-25T12:40:51;19.60;57.80
3770;DHT22;1900;48.890;9.190;2024-03-25T12:43:17;19.80;58.70
3770;DHT22;1900;48.890;9.190;2024-03-25T12:45:43;19.90;58.70
3770;DHT22;1900;48.890;9.190;2024-03-25T12:48:10;20.10;58.90
3770;DHT22;1900;48.890;9.190;2024-03-25T12:50:36;20.20;58.90
3770;DHT22;1900;48.890;9.190;2024-03-25T12:53:04;20.30;59.00
3770;DHT22;1900;48.890;9.190;2024-03-25T12:55:30;20.40;59.10
3770;DHT22;1900;48.890;9.190;2024-03-25T12:57:56;20.50;59.20
3770;DHT22;1900;48.890;9.190;2024-03-25T13:00:21;20.60;59.00
3770;DHT22;1900;48.890;9.190;2024-03-25T13:02:48;20.70;59.00
3770;DHT22;1900;48.890;9.190;2024-03-25T13:05:14;20.80;59.20
3770;DHT22;1900;48.890;9.190;2024-03-25T13:07:39;20.90;59.30
3770;DHT22;1900;48.890;9.190;2024-03-25T13:10:05;21.00;59.50
3770;DHT22;1900;48.890;9.190;2024-03-25T13:12:31;21.00;58.90
3770;DHT22;1900;48.890;9.190;2024-03-25T13:14:57;21.10;59.10
3770;DHT22;1900;48.890;9.190;2024-03-25T13:17:24;21.20;59.40
3770;DHT22;1900;48.890;9.190;2024-03-25T13:19:50;21.20;58.70
3770;DHT22;1900;48.890;9.190;2024-03-25T13:22:16;21.30;58.70
3770;DHT22;1900;48.890;9.190;2024-03-25T13:24:42;21.30;58.90
3770;DHT22;1900;48.890;9.190;2024-03-25T13:27:07;21.40;59.10
3770;DHT22;1900;48.890;9.190;2024-03-25T13:29:34;21.50;59.30
3770;DHT22;1900;48.890;9.190;2024-03-25T13:32:03;21.60;59.40
3770;DHT22;1900;48.890;9.190;2024-03-25T13:34:29;21.70;59.10
3770;DHT22;1900;48.890;9.190;2024-03-25T13:36:55;21.70;59.00
3770;DHT22;1900;48.890;9.190;2024-03-25T13:39:20;21.80;58.30
3770;DHT22;1900;48.890;9.190;2024-03-25T13:41:46;21.90;58.40
3770;DHT22;1900;48.890;9.190;2024-03-25T13:44:12;21.90;58.80
3770;DHT22;1900;48.890;9.190;2024-03-25T13:46:38;22.00;59.30
3770;DHT22;1900;48.890;9.190;2024-03-25T13:49:04;22.10;59.50
3770;DHT22;1900;48.890;9.190;2024-03-25T13:51:29;22.20;59.50
3770;DHT22;1900;48.890;9.190;2024-03-25T13:53:55;22.30;59.20
3770;DHT22;1900;48.890;9.190;2024-03-25T13:56:21;22.40;59.30
3770;DHT22;1900;48.890;9.190;2024-03-25T13:58:47;22.40;58.70
3770;DHT22;1900;48.890;9.190;2024-03-25T14:01:12;22.50;58.90
3770;DHT22;1900;48.890;9.190;2024-03-25T14:03:38;22.50;59.20
3770;DHT22;1900;48.890;9.190;2024-03-25T14:06:04;22.60;59.20
3770;DHT22;1900;48.890;9.190;2024-03-25T14:08:30;22.70;57.10
3770;DHT22;1900;48.890;9.190;2024-03-25T14:10:59;22.70;57.90
3770;DHT22;1900;48.890;9.190;2024-03-25T14:13:26;22.70;57.60
3770;DHT22;1900;48.890;9.190;2024-03-25T14:15:52;22.70;57.60
3770;DHT22;1900;48.890;9.190;2024-03-25T14:18:17;22.70;58.10
3770;DHT22;1900;48.890;9.190;2024-03-25T14:20:43;22.80;58.20
3770;DHT22;1900;48.890;9.190;2024-03-25T14:23:09;22.90;58.20
3770;DHT22;1900;48.890;9.190;2024-03-25T14:25:35;23.00;58.40
3770;DHT22;1900;48.890;9.190;2024-03-25T14:28:01;23.10;58.80
3770;DHT22;1900;48.890;9.190;2024-03-25T14:30:27;23.20;58.70
3770;DHT22;1900;48.890;9.190;2024-03-25T14:32:52;23.20;57.70
3770;DHT22;1900;48.890;9.190;2024-03-25T14:35:21;23.30;57.60
3770;DHT22;1900;48.890;9.190;2024-03-25T14:37:47;23.30;57.60
3770;DHT22;1900;48.890;9.190;2024-03-25T14:40:14;23.40;58.00
3770;DHT22;1900;48.890;9.190;2024-03-25T14:42:40;23.40;58.20
3770;DHT22;1900;48.890;9.190;2024-03-25T14:45:06;23.50;58.30
3770;DHT22;1900;48.890;9.190;2024-03-25T14:47:32;23.50;59.00
3770;DHT22;1900;48.890;9.190;2024-03-25T14:49:58;23.60;58.50
3770;DHT22;1900;48.890;9.190;2024-03-25T14:52:24;23.60;58.40
3770;DHT22;1900;48.890;9.190;2024-03-25T14:54:50;23.70;58.10
3770;DHT22;1900;48.890;9.190;2024-03-25T14:57:16;23.70;57.60
3770;DHT22;1900;48.890;9.190;2024-03-25T15:00:01;23.70;57.80
3770;DHT22;1900;48.890;9.190;2024-03-25T15:02:27;23.70;57.30
3770;DHT22;1900;48.890;9.190;2024-03-25T15:04:52;23.70;57.20
3770;DHT22;1900;48.890;9.190;2024-03-25T15:07:19;23.60;56.50
3770;DHT22;1900;48.890;9.190;2024-03-25T15:09:45;23.60;56.70
3770;DHT22;1900;48.890;9.190;2024-03-25T15:12:10;23.60;56.40
3770;DHT22;1900;48.890;9.190;2024-03-25T15:14:37;23.50;56.50
3770;DHT22;1900;48.890;9.190;2024-03-25T15:17:03;23.50;56.30
3770;DHT22;1900;48.890;9.190;2024-03-25T15:19:29;23.40;56.20
3770;DHT22;1900;48.890;9.190;2024-03-25T15:21:54;23.40;56.10
3770;DHT22;1900;48.890;9.190;2024-03-25T15:24:20;23.20;55.60
3770;DHT22;1900;48.890;9.190;2024-03-25T15:26:47;23.20;55.60
3770;DHT22;1900;48.890;9.190;2024-03-25T15:29:13;23.10;55.30
3770;DHT22;1900;48.890;9.190;2024-03-25T15:31:38;23.00;55.00
3770;DHT22;1900;48.890;9.190;2024-03-25T15:34:04;22.90;55.10
3770;DHT22;1900;48.890;9.190;2024-03-25T15:36:30;22.80;55.00
3770;DHT22;1900;48.890;9.190;2024-03-25T15:38:57;22.80;55.20
3770;DHT22;1900;48.890;9.190;2024-03-25T15:41:22;22.70;55.00
3770;DHT22;1900;48.890;9.190;2024-03-25T15:43:52;22.50;54.30
3770;DHT22;1900;48.890;9.190;2024-03-25T15:46:18;22.40;53.90
3770;DHT22;1900;48.890;9.190;2024-03-25T15:48:44;22.20;53.80
3770;DHT22;1900;48.890;9.190;2024-03-25T15:51:10;22.10;53.50
3770;DHT22;1900;48.890;9.190;2024-03-25T15:53:36;21.90;53.40
3770;DHT22;1900;48.890;9.190;2024-03-25T15:56:02;21.70;52.90
3770;DHT22;1900;48.890;9.190;2024-03-25T15:58:28;21.50;52.60
3770;DHT22;1900;48.890;9.190;2024-03-25T16:00:56;21.30;52.30
3770;DHT22;1900;48.890;9.190;2024-03-25T16:03:22;21.10;52.20